Time;durP1;ratioP1;P1;durP2;ratioP2;P2;SDS_P1;SDS_P2;PMS_P1;PMS_P2;Temp;Humidity;BMP_temperature;BMP_pressure;BME280_temperature;BME280_humidity;BME280_pressure;Samples;Min_cycle;Max_cycle;Signal;HPM_P1;HPM_P2
2023/01/29 00:02:27;;;;;;;9.15;8.18;;;;;;;;;;5063808;28;20431;-67
2023/01/29 00:04:53;;;;;;;10.43;8.27;;;;;;;;;;5063817;28;20209;-67
2023/01/29 00:07:19;;;;;;;8.38;7.60;;;;;;;;;;5064254;28;20536;-67
2023/01/29 00:09:46;;;;;;;8.63;7.80;;;;;;;;;;5063034;28;20209;-67
2023/01/29 00:12:12;;;;;;;8.27;7.47;;;;;;;;;;5063671;28;20209;-67
2023/01/29 00:14:38;;;;;;;10.07;8.35;;;;;;;;;;5063761;28;20208;-67
2023/01/29 00:17:04;;;;;;;11.57;8.25;;;;;;;;;;5055356;28;20235;-67
2023/01/29 00:19:32;;;;;;;8.40;7.60;;;;;;;;;;5063963;28;20197;-67
2023/01/29 00:21:58;;;;;;;8.82;7.95;;;;;;;;;;5063495;28;20205;-67
2023/01/29 00:24:25;;;;;;;8.93;7.82;;;;;;;;;;5063458;28;20247;-67
2023/01/29 00:26:51;;;;;;;9.18;8.27;;;;;;;;;;5063357;28;20417;-67
2023/01/29 00:29:17;;;;;;;8.20;7.50;;;;;;;;;;5063358;28;20500;-67
2023/01/29 00:31:44;;;;;;;9.10;8.32;;;;;;;;;;5062667;28;20400;-67
2023/01/29 00:34:10;;;;;;;8.43;7.50;;;;;;;;;;5063594;28;20205;-67
2023/01/29 00:36:38;;;;;;;8.65;7.60;;;;;;;;;;5063148;28;20201;-67
2023/01/29 00:39:09;;;;;;;8.35;7.28;;;;;;;;;;5063153;28;20193;-67
2023/01/29 00:47:04;;;;;;;8.27;7.57;;;;;;;;;;5062716;28;20431;-67
2023/01/29 00:49:50;;;;;;;9.85;7.90;;;;;;;;;;5062811;28;20205;-67
2023/01/29 00:52:23;;;;;;;8.45;7.60;;;;;;;;;;5062514;28;20201;-67
2023/01/29 00:54:50;;;;;;;8.35;7.57;;;;;;;;;;5062487;28;20216;-67
2023/01/29 00:57:16;;;;;;;9.25;8.27;;;;;;;;;;5062894;28;20268;-67
2023/01/29 00:59:42;;;;;;;10.20;7.63;;;;;;;;;;5062881;28;20246;-67
2023/01/29 01:04:52;;;;;;;8.40;7.60;;;;;;;;;;5062714;28;20262;-67
2023/01/29 01:07:20;;;;;;;7.47;6.88;;;;;;;;;;5062722;28;20268;-67
2023/01/29 01:12:30;;;;;;;9.93;7.55;;;;;;;;;;5062483;28;20323;-67
2023/01/29 01:14:57;;;;;;;9.55;7.25;;;;;;;;;;5062948;28;20427;-67
2023/01/29 01:17:23;;;;;;;8.32;7.47;;;;;;;;;;5062683;28;20509;-67
2023/01/29 01:19:49;;;;;;;8.35;7.40;;;;;;;;;;5061861;28;20223;-67
2023/01/29 01:22:15;;;;;;;8.70;7.35;;;;;;;;;;5061996;28;20531;-67
2023/01/29 01:24:43;;;;;;;8.15;7.35;;;;;;;;;;5062288;28;20205;-67
2023/01/29 01:27:09;;;;;;;8.73;7.43;;;;;;;;;;5062447;28;20251;-67
2023/01/29 01:29:36;;;;;;;8.55;7.70;;;;;;;;;;5062229;28;20270;-67
2023/01/29 01:32:02;;;;;;;7.82;7.05;;;;;;;;;;5061989;28;20196;-67
2023/01/29 01:34:28;;;;;;;8.75;7.03;;;;;;;;;;5062434;28;20206;-67
2023/01/29 01:36:55;;;;;;;8.30;7.43;;;;;;;;;;5062315;28;20212;-67
2023/01/29 01:39:22;;;;;;;6.95;6.45;;;;;;;;;;5062366;28;20193;-67
2023/01/29 01:41:49;;;;;;;8.35;6.95;;;;;;;;;;5061975;28;20211;-67
2023/01/29 01:44:34;;;;;;;7.85;7.10;;;;;;;;;;5062282;28;20400;-67
2023/01/29 01:47:01;;;;;;;7.07;6.47;;;;;;;;;;5062112;28;20197;-67
2023/01/29 01:49:27;;;;;;;7.82;7.13;;;;;;;;;;5061870;28;20213;-67
2023/01/29 01:51:54;;;;;;;6.50;6.00;;;;;;;;;;5061934;28;20289;-67
2023/01/29 01:54:23;;;;;;;7.47;6.82;;;;;;;;;;5062120;28;20201;-67
2023/01/29 01:56:53;;;;;;;7.65;6.82;;;;;;;;;;5061857;28;20631;-67
2023/01/29 01:59:19;;;;;;;7.63;6.38;;;;;;;;;;5061980;28;20197;-67
2023/01/29 02:01:48;;;;;;;6.60;6.10;;;;;;;;;;5061407;28;20201;-67
2023/01/29 02:09:47;;;;;;;8.68;6.80;;;;;;;;;;5061836;28;20263;-67
2023/01/29 02:12:16;;;;;;;6.95;6.18;;;;;;;;;;5061881;28;20497;-67
2023/01/29 02:14:42;;;;;;;7.55;6.63;;;;;;;;;;5061605;28;20201;-67
2023/01/29 02:17:09;;;;;;;8.32;7.35;;;;;;;;;;5061484;28;20427;-67
2023/01/29 02:19:44;;;;;;;7.05;6.35;;;;;;;;;;5061891;28;20227;-67
2023/01/29 02:22:27;;;;;;;6.85;6.35;;;;;;;;;;5054478;28;20416;-67
2023/01/29 02:24:59;;;;;;;6.95;6.35;;;;;;;;;;5061442;28;20412;-67
2023/01/29 02:27:32;;;;;;;6.60;6.00;;;;;;;;;;5061882;28;20217;-67
2023/01/29 02:30:03;;;;;;;7.03;6.53;;;;;;;;;;5061606;28;20221;-67
2023/01/29 02:32:31;;;;;;;6.95;6.35;;;;;;;;;;5063490;28;20508;-67
2023/01/29 02:37:53;;;;;;;7.53;6.93;;;;;;;;;;5065136;28;20223;-67
2023/01/29 02:40:24;;;;;;;7.50;6.80;;;;;;;;;;5065431;28;20205;-67
2023/01/29 02:42:52;;;;;;;7.85;7.05;;;;;;;;;;5065425;28;20207;-67
2023/01/29 02:45:22;;;;;;;7.60;6.97;;;;;;;;;;5065209;28;20205;-67
2023/01/29 02:47:54;;;;;;;8.10;6.93;;;;;;;;;;5064965;28;20201;-67
2023/01/29 02:50:21;;;;;;;7.30;6.70;;;;;;;;;;5065183;28;20201;-67
2023/01/29 02:52:55;;;;;;;7.45;6.80;;;;;;;;;;5064807;28;20527;-67
2023/01/29 02:55:24;;;;;;;7.75;7.00;;;;;;;;;;5065300;28;20220;-67
2023/01/29 02:57:52;;;;;;;7.70;7.00;;;;;;;;;;5064892;28;20209;-67
2023/01/29 03:00:20;;;;;;;7.65;6.95;;;;;;;;;;5065021;28;20248;-67
2023/01/29 03:02:50;;;;;;;6.65;6.15;;;;;;;;;;5064636;28;20201;-67
2023/01/29 03:05:19;;;;;;;7.53;6.82;;;;;;;;;;5065122;28;20197;-67
2023/01/29 03:07:49;;;;;;;7.32;6.43;;;;;;;;;;5064716;28;20224;-67
2023/01/29 03:10:16;;;;;;;7.50;6.80;;;;;;;;;;5064928;28;20412;-67
2023/01/29 03:12:44;;;;;;;8.23;7.43;;;;;;;;;;5064462;28;20205;-67
2023/01/29 03:15:13;;;;;;;7.45;6.68;;;;;;;;;;5064783;28;20203;-67
2023/01/29 03:17:41;;;;;;;9.25;6.95;;;;;;;;;;5064381;28;20232;-67
2023/01/29 03:20:13;;;;;;;7.43;6.63;;;;;;;;;;5056773;28;20205;-67
2023/01/29 03:22:40;;;;;;;7.00;6.50;;;;;;;;;;5064509;28;20209;-67
2023/01/29 03:33:26;;;;;;;7.30;6.47;;;;;;;;;;5058654;28;20558;-67
2023/01/29 03:35:59;;;;;;;7.13;6.45;;;;;;;;;;5064519;28;20208;-67
2023/01/29 03:38:28;;;;;;;7.05;6.50;;;;;;;;;;5064174;28;20205;-67
2023/01/29 03:40:57;;;;;;;8.20;6.88;;;;;;;;;;5064393;28;20264;-67
2023/01/29 03:43:27;;;;;;;7.60;6.40;;;;;;;;;;5063022;28;20205;-67
2023/01/29 03:45:58;;;;;;;6.35;5.85;;;;;;;;;;5064132;28;20461;-67
2023/01/29 03:48:29;;;;;;;7.55;6.75;;;;;;;;;;5063957;28;20221;-67
2023/01/29 03:51:00;;;;;;;7.13;6.43;;;;;;;;;;5063810;28;20201;-67
2023/01/29 03:53:30;;;;;;;6.72;6.20;;;;;;;;;;5063873;28;20220;-67
2023/01/29 03:56:01;;;;;;;6.38;5.88;;;;;;;;;;5064035;28;20293;-67
2023/01/29 03:58:32;;;;;;;6.30;5.78;;;;;;;;;;5063901;28;20500;-67
2023/01/29 04:01:01;;;;;;;6.55;6.05;;;;;;;;;;5063947;28;20201;-67
2023/01/29 04:03:32;;;;;;;6.90;6.20;;;;;;;;;;5063620;28;20205;-67
2023/01/29 04:06:09;;;;;;;7.15;6.40;;;;;;;;;;5063958;28;20204;-67
2023/01/29 04:08:38;;;;;;;6.50;6.00;;;;;;;;;;5063802;28;20541;-67
2023/01/29 04:11:08;;;;;;;6.47;6.07;;;;;;;;;;5063545;28;20197;-67
2023/01/29 04:13:35;;;;;;;6.72;6.22;;;;;;;;;;5063489;28;20197;-67
2023/01/29 04:16:04;;;;;;;6.55;5.85;;;;;;;;;;5063486;28;20244;-67
2023/01/29 04:18:30;;;;;;;6.57;6.05;;;;;;;;;;5063862;28;20261;-67
2023/01/29 04:20:56;;;;;;;6.65;6.07;;;;;;;;;;5063549;28;20511;-67
2023/01/29 04:23:25;;;;;;;6.80;6.20;;;;;;;;;;5063298;28;20200;-67
2023/01/29 04:25:54;;;;;;;6.28;5.65;;;;;;;;;;5063320;28;20264;-67
2023/01/29 04:28:22;;;;;;;6.57;6.03;;;;;;;;;;5062889;28;20236;-67
2023/01/29 04:30:53;;;;;;;6.82;6.32;;;;;;;;;;5063586;28;20201;-67
2023/01/29 04:33:29;;;;;;;7.72;6.47;;;;;;;;;;5063242;28;20501;-67
2023/01/29 04:36:05;;;;;;;6.95;6.32;;;;;;;;;;5063173;28;20391;-67
2023/01/29 04:38:40;;;;;;;8.20;6.90;;;;;;;;;;5063224;28;20211;-67
2023/01/29 04:41:10;;;;;;;6.07;5.65;;;;;;;;;;5054820;28;20236;-67
2023/01/29 04:43:39;;;;;;;7.05;6.45;;;;;;;;;;5063241;28;20205;-67
2023/01/29 04:46:16;;;;;;;6.95;6.32;;;;;;;;;;5063299;28;20197;-67
2023/01/29 04:48:49;;;;;;;7.40;6.20;;;;;;;;;;5062728;28;20217;-67
2023/01/29 04:51:19;;;;;;;6.80;6.30;;;;;;;;;;5062876;28;20197;-67
2023/01/29 04:53:49;;;;;;;7.60;6.30;;;;;;;;;;5062819;28;20201;-67
2023/01/29 04:56:18;;;;;;;7.80;6.30;;;;;;;;;;5062781;28;20206;-67
2023/01/29 04:58:47;;;;;;;7.22;6.53;;;;;;;;;;5062783;28;20204;-67
2023/01/29 05:01:16;;;;;;;6.70;6.10;;;;;;;;;;5062551;28;20243;-67
2023/01/29 05:03:44;;;;;;;6.90;6.32;;;;;;;;;;5062443;28;20427;-67
2023/01/29 05:06:11;;;;;;;7.68;6.85;;;;;;;;;;5062643;28;20199;-67
2023/01/29 05:08:39;;;;;;;6.97;6.38;;;;;;;;;;5062651;28;20532;-67
2023/01/29 05:11:06;;;;;;;7.38;6.68;;;;;;;;;;5062549;28;20209;-67
2023/01/29 05:13:34;;;;;;;7.50;6.80;;;;;;;;;;5062216;28;20207;-67
2023/01/29 05:16:02;;;;;;;7.63;6.90;;;;;;;;;;5062354;28;20209;-67
2023/01/29 05:18:29;;;;;;;7.57;6.88;;;;;;;;;;5062095;28;20493;-67
2023/01/29 05:20:56;;;;;;;7.72;7.03;;;;;;;;;;5062344;28;20205;-67
2023/01/29 05:23:23;;;;;;;7.07;6.55;;;;;;;;;;5062055;28;20392;-67
2023/01/29 05:25:50;;;;;;;7.18;6.57;;;;;;;;;;5062246;28;20212;-67
2023/01/29 05:28:17;;;;;;;7.28;6.68;;;;;;;;;;5062440;28;20453;-67
2023/01/29 05:30:44;;;;;;;7.07;6.50;;;;;;;;;;5062098;28;20288;-67
2023/01/29 05:33:12;;;;;;;8.85;6.50;;;;;;;;;;5061810;28;20267;-67
2023/01/29 05:35:39;;;;;;;8.52;6.35;;;;;;;;;;5062365;28;20211;-67
2023/01/29 05:38:05;;;;;;;10.50;6.50;;;;;;;;;;5062183;28;20204;-67
2023/01/29 05:40:31;;;;;;;7.43;6.82;;;;;;;;;;5061934;28;20197;-67
2023/01/29 05:42:58;;;;;;;9.48;7.75;;;;;;;;;;5061869;28;20255;-67
2023/01/29 05:45:25;;;;;;;7.50;6.88;;;;;;;;;;5061777;28;20197;-67
2023/01/29 05:47:55;;;;;;;10.68;7.70;;;;;;;;;;5061675;28;20445;-67
2023/01/29 05:50:21;;;;;;;8.50;7.70;;;;;;;;;;5062308;28;20240;-67
2023/01/29 05:52:47;;;;;;;7.10;6.50;;;;;;;;;;5061803;28;20212;-67
2023/01/29 05:55:13;;;;;;;7.30;6.70;;;;;;;;;;5061955;28;20205;-67
2023/01/29 05:57:40;;;;;;;6.95;6.35;;;;;;;;;;5061896;28;20255;-67
2023/01/29 06:00:07;;;;;;;6.95;6.35;;;;;;;;;;5053677;28;20201;-67
2023/01/29 06:02:35;;;;;;;7.25;6.63;;;;;;;;;;5062232;28;20510;-67
2023/01/29 06:05:01;;;;;;;7.90;7.10;;;;;;;;;;5062036;28;20512;-67
2023/01/29 06:07:27;;;;;;;7.30;6.50;;;;;;;;;;5063806;28;20416;-67
2023/01/29 06:09:53;;;;;;;7.30;6.60;;;;;;;;;;5065719;28;20244;-67
2023/01/29 06:12:20;;;;;;;6.88;6.28;;;;;;;;;;5065607;28;20197;-67
2023/01/29 06:14:46;;;;;;;7.88;7.15;;;;;;;;;;5065578;28;20215;-67
2023/01/29 06:17:12;;;;;;;7.20;6.50;;;;;;;;;;5065724;28;20204;-67
2023/01/29 06:19:40;;;;;;;7.80;6.80;;;;;;;;;;5065923;28;20512;-67
2023/01/29 06:22:06;;;;;;;8.57;7.78;;;;;;;;;;5057534;28;20504;-67
2023/01/29 06:24:32;;;;;;;8.00;7.35;;;;;;;;;;5065627;28;20205;-67
2023/01/29 06:26:58;;;;;;;7.78;7.07;;;;;;;;;;5065332;28;20208;-67
2023/01/29 06:29:25;;;;;;;7.43;6.82;;;;;;;;;;5065330;28;20223;-67
2023/01/29 06:31:51;;;;;;;7.88;7.07;;;;;;;;;;5065429;28;20232;-67
2023/01/29 06:34:17;;;;;;;9.77;7.03;;;;;;;;;;5065603;28;20442;-67
2023/01/29 06:36:45;;;;;;;7.60;6.90;;;;;;;;;;5065682;28;20428;-67
2023/01/29 06:39:11;;;;;;;8.18;7.47;;;;;;;;;;5065418;28;20231;-68
2023/01/29 06:41:37;;;;;;;7.90;7.10;;;;;;;;;;5065177;28;20213;-68
2023/01/29 06:44:04;;;;;;;7.35;6.70;;;;;;;;;;5064963;28;20235;-68
2023/01/29 06:46:31;;;;;;;7.43;6.78;;;;;;;;;;5065670;28;20204;-68
2023/01/29 06:48:59;;;;;;;8.90;7.65;;;;;;;;;;5065432;28;20507;-68
2023/01/29 06:51:25;;;;;;;7.45;6.75;;;;;;;;;;5065624;28;20477;-68
2023/01/29 06:53:54;;;;;;;7.65;6.95;;;;;;;;;;5064930;28;20208;-68
2023/01/29 06:56:21;;;;;;;8.43;7.70;;;;;;;;;;5064959;28;20201;-68
2023/01/29 06:58:47;;;;;;;8.52;7.63;;;;;;;;;;5065088;28;20513;-68
2023/01/29 07:01:14;;;;;;;7.97;7.18;;;;;;;;;;5064931;28;20193;-68
2023/01/29 07:03:40;;;;;;;9.15;7.53;;;;;;;;;;5064727;28;20212;-68
2023/01/29 07:06:07;;;;;;;9.00;7.65;;;;;;;;;;5056712;28;20429;-68
2023/01/29 07:08:35;;;;;;;7.47;6.78;;;;;;;;;;5064613;28;20213;-68
2023/01/29 07:11:03;;;;;;;7.80;7.20;;;;;;;;;;5064324;28;20221;-68
2023/01/29 07:13:29;;;;;;;7.95;7.22;;;;;;;;;;5064648;28;20547;-68
2023/01/29 07:15:57;;;;;;;8.32;7.57;;;;;;;;;;5064613;28;20212;-68
2023/01/29 07:18:23;;;;;;;8.85;7.68;;;;;;;;;;5064542;28;20201;-68
2023/01/29 07:20:50;;;;;;;9.63;8.02;;;;;;;;;;5064580;28;20227;-68
2023/01/29 07:23:16;;;;;;;8.32;7.53;;;;;;;;;;5064482;28;20197;-68
2023/01/29 07:25:43;;;;;;;8.65;7.80;;;;;;;;;;5064185;28;20205;-69
2023/01/29 07:28:10;;;;;;;7.68;6.95;;;;;;;;;;5064663;28;20567;-69
2023/01/29 07:30:37;;;;;;;8.75;7.80;;;;;;;;;;5064494;28;20244;-69
2023/01/29 07:33:04;;;;;;;7.95;7.25;;;;;;;;;;5064107;28;20197;-69
2023/01/29 07:35:30;;;;;;;8.55;7.75;;;;;;;;;;5065163;28;20381;-69
2023/01/29 07:37:56;;;;;;;8.57;7.68;;;;;;;;;;5064030;28;20212;-69
2023/01/29 07:40:22;;;;;;;8.48;7.57;;;;;;;;;;5064224;28;20201;-69
2023/01/29 07:42:49;;;;;;;10.32;7.93;;;;;;;;;;5064192;28;20205;-68
2023/01/29 07:45:16;;;;;;;8.32;7.63;;;;;;;;;;5064459;28;20399;-68
2023/01/29 07:47:43;;;;;;;8.15;7.35;;;;;;;;;;5064067;28;20201;-68
2023/01/29 07:50:09;;;;;;;8.27;7.47;;;;;;;;;;5064058;28;20217;-68
2023/01/29 07:52:36;;;;;;;9.02;8.13;;;;;;;;;;5063897;28;20500;-68
2023/01/29 07:55:02;;;;;;;11.73;8.95;;;;;;;;;;5064264;28;20424;-68
2023/01/29 07:57:29;;;;;;;10.43;8.80;;;;;;;;;;5064295;28;20390;-68
2023/01/29 07:59:55;;;;;;;9.85;8.23;;;;;;;;;;5063899;28;20402;-68
2023/01/29 08:02:23;;;;;;;9.10;8.27;;;;;;;;;;5063914;28;20204;-69
2023/01/29 08:04:49;;;;;;;9.15;8.25;;;;;;;;;;5064019;28;20201;-69
2023/01/29 08:07:15;;;;;;;8.30;7.50;;;;;;;;;;5063696;28;20212;-68
2023/01/29 08:09:42;;;;;;;8.60;7.80;;;;;;;;;;5063955;28;20224;-68
2023/01/29 08:12:08;;;;;;;10.50;7.65;;;;;;;;;;5063746;28;20205;-68
2023/01/29 08:14:34;;;;;;;9.93;8.63;;;;;;;;;;5063805;28;20504;-68
2023/01/29 08:17:00;;;;;;;9.27;8.15;;;;;;;;;;5063806;28;20602;-68
2023/01/29 08:19:28;;;;;;;9.07;8.27;;;;;;;;;;5063820;28;20436;-68
2023/01/29 08:21:54;;;;;;;10.77;8.27;;;;;;;;;;5063021;28;20223;-68
2023/01/29 08:24:20;;;;;;;8.63;7.72;;;;;;;;;;5063777;28;20201;-67
2023/01/29 08:26:47;;;;;;;11.82;9.05;;;;;;;;;;5063501;28;20220;-67
2023/01/29 08:29:13;;;;;;;13.88;11.07;;;;;;;;;;5062673;28;20447;-68
2023/01/29 08:31:39;;;;;;;9.25;8.38;;;;;;;;;;5062165;28;20548;-67
2023/01/29 08:34:05;;;;;;;11.27;8.93;;;;;;;;;;5061773;28;20535;-68
2023/01/29 08:36:33;;;;;;;13.43;9.45;;;;;;;;;;5061604;28;20200;-68
2023/01/29 08:39:00;;;;;;;9.63;8.68;;;;;;;;;;5061546;28;20201;-68
2023/01/29 08:41:26;;;;;;;10.38;8.75;;;;;;;;;;5061645;28;20223;-67
2023/01/29 08:43:52;;;;;;;10.18;9.13;;;;;;;;;;5061518;28;20193;-67
2023/01/29 08:46:18;;;;;;;10.88;9.00;;;;;;;;;;5062153;28;20208;-67
2023/01/29 08:48:45;;;;;;;9.98;8.98;;;;;;;;;;5062445;28;20246;-67
2023/01/29 08:51:11;;;;;;;10.77;9.40;;;;;;;;;;5062447;28;20220;-67
2023/01/29 08:53:39;;;;;;;10.13;8.82;;;;;;;;;;5062972;28;20272;-67
2023/01/29 08:56:05;;;;;;;10.32;9.32;;;;;;;;;;5063050;28;20203;-67
2023/01/29 08:58:32;;;;;;;12.70;9.93;;;;;;;;;;5063130;28;20527;-67
2023/01/29 09:01:05;;;;;;;9.93;8.95;;;;;;;;;;5062876;28;20397;-67
2023/01/29 09:03:31;;;;;;;9.73;8.75;;;;;;;;;;5062727;28;20197;-68
2023/01/29 09:05:57;;;;;;;9.35;8.50;;;;;;;;;;5062649;28;20200;-68
2023/01/29 09:08:24;;;;;;;12.23;8.95;;;;;;;;;;5063119;28;20205;-68
2023/01/29 09:10:51;;;;;;;9.73;8.73;;;;;;;;;;5062710;28;20574;-68
2023/01/29 09:13:17;;;;;;;11.32;8.93;;;;;;;;;;5062892;28;20197;-68
2023/01/29 09:15:44;;;;;;;12.13;8.93;;;;;;;;;;5062879;28;20201;-68
2023/01/29 09:18:10;;;;;;;9.55;8.55;;;;;;;;;;5062594;28;20243;-68
2023/01/29 09:20:37;;;;;;;11.15;8.90;;;;;;;;;;5062585;28;20515;-68
2023/01/29 09:23:04;;;;;;;11.70;8.30;;;;;;;;;;5062218;28;20205;-68
2023/01/29 09:25:31;;;;;;;10.32;7.97;;;;;;;;;;5062545;28;20432;-67
2023/01/29 09:27:58;;;;;;;9.73;8.25;;;;;;;;;;5062257;28;20463;-68
2023/01/29 09:30:25;;;;;;;9.25;8.32;;;;;;;;;;5062344;28;20225;-67
2023/01/29 09:32:51;;;;;;;11.48;9.18;;;;;;;;;;5061999;28;20279;-67
2023/01/29 09:35:17;;;;;;;11.05;8.85;;;;;;;;;;5062540;28;20205;-67
2023/01/29 09:37:47;;;;;;;9.38;8.48;;;;;;;;;;5062547;28;20201;-67
2023/01/29 09:40:17;;;;;;;13.75;8.80;;;;;;;;;;5062577;28;20216;-67
2023/01/29 09:42:47;;;;;;;9.30;8.35;;;;;;;;;;5061295;28;20201;-67
2023/01/29 09:45:17;;;;;;;9.65;8.65;;;;;;;;;;5062452;28;20400;-67
2023/01/29 09:47:43;;;;;;;10.13;8.98;;;;;;;;;;5062096;28;20394;-67
2023/01/29 09:50:13;;;;;;;7.97;7.38;;;;;;;;;;5062074;28;20197;-68
2023/01/29 09:52:40;;;;;;;9.48;8.45;;;;;;;;;;5062070;28;20234;-67
2023/01/29 09:55:12;;;;;;;8.85;8.05;;;;;;;;;;5053972;28;20209;-67
2023/01/29 09:57:41;;;;;;;9.68;8.75;;;;;;;;;;5062180;28;20239;-68
2023/01/29 10:00:13;;;;;;;9.98;8.90;;;;;;;;;;5054340;28;20212;-68
2023/01/29 10:02:51;;;;;;;9.45;8.55;;;;;;;;;;5061983;28;20212;-68
2023/01/29 10:05:22;;;;;;;9.23;8.40;;;;;;;;;;5047415;28;20527;-67
2023/01/29 10:08:02;;;;;;;8.75;7.85;;;;;;;;;;5062026;28;20204;-68
2023/01/29 10:10:35;;;;;;;10.30;9.32;;;;;;;;;;5062163;28;20225;-67
2023/01/29 10:13:06;;;;;;;10.80;9.75;;;;;;;;;;5061842;28;20209;-68
2023/01/29 10:15:53;;;;;;;13.82;10.68;;;;;;;;;;5062083;28;20197;-68
2023/01/29 10:18:38;;;;;;;10.73;9.48;;;;;;;;;;5055444;28;20205;-68
2023/01/29 10:21:09;;;;;;;9.85;8.80;;;;;;;;;;5061720;28;20193;-68
2023/01/29 10:23:38;;;;;;;11.02;9.43;;;;;;;;;;5061834;28;20201;-68
2023/01/29 10:26:04;;;;;;;11.55;9.88;;;;;;;;;;5061830;28;20205;-68
2023/01/29 10:28:33;;;;;;;10.45;9.50;;;;;;;;;;5061775;28;20224;-68
2023/01/29 10:31:02;;;;;;;10.90;9.05;;;;;;;;;;5061610;28;20225;-67
2023/01/29 10:33:33;;;;;;;9.85;8.95;;;;;;;;;;5061542;28;20217;-68
2023/01/29 10:36:02;;;;;;;11.38;10.25;;;;;;;;;;5061829;28;20205;-68
2023/01/29 10:38:35;;;;;;;10.90;9.90;;;;;;;;;;5061633;28;20197;-68
2023/01/29 10:41:06;;;;;;;10.25;9.20;;;;;;;;;;5061576;28;20205;-67
2023/01/29 10:43:36;;;;;;;10.63;9.45;;;;;;;;;;5061979;28;20197;-68
2023/01/29 10:46:07;;;;;;;11.43;10.32;;;;;;;;;;5061852;28;20208;-67
2023/01/29 10:48:40;;;;;;;12.52;9.07;;;;;;;;;;5061566;28;20197;-68
2023/01/29 10:51:15;;;;;;;11.93;9.93;;;;;;;;;;5053274;28;20202;-68
2023/01/29 10:53:46;;;;;;;15.25;9.68;;;;;;;;;;5063477;28;20455;-68
2023/01/29 10:56:28;;;;;;;10.38;9.27;;;;;;;;;;5065434;28;20294;-68
2023/01/29 10:58:55;;;;;;;10.75;9.70;;;;;;;;;;5065187;28;20504;-67
2023/01/29 11:01:21;;;;;;;10.85;9.85;;;;;;;;;;5065481;28;20200;-68
2023/01/29 11:03:54;;;;;;;11.10;10.00;;;;;;;;;;5064914;28;20201;-67
2023/01/29 11:06:24;;;;;;;12.57;10.18;;;;;;;;;;5065134;28;20198;-68
2023/01/29 11:08:54;;;;;;;11.35;10.27;;;;;;;;;;5065360;28;20201;-68
2023/01/29 11:11:21;;;;;;;13.00;10.25;;;;;;;;;;5064853;28;20533;-68
2023/01/29 11:13:50;;;;;;;10.95;9.85;;;;;;;;;;5064869;28;20520;-67
2023/01/29 11:16:16;;;;;;;13.05;10.88;;;;;;;;;;5064939;28;20220;-67
2023/01/29 11:18:50;;;;;;;10.90;9.85;;;;;;;;;;5064845;28;20209;-67
2023/01/29 11:21:16;;;;;;;14.20;10.45;;;;;;;;;;5064977;28;20211;-67
2023/01/29 11:23:45;;;;;;;10.10;9.20;;;;;;;;;;5064568;28;20219;-68
2023/01/29 11:26:12;;;;;;;10.73;9.60;;;;;;;;;;5064841;28;20201;-68
2023/01/29 11:28:39;;;;;;;12.82;9.80;;;;;;;;;;5064550;28;20284;-67
2023/01/29 11:31:15;;;;;;;11.10;10.00;;;;;;;;;;5064282;28;20223;-68
2023/01/29 11:33:42;;;;;;;10.95;9.85;;;;;;;;;;5064289;28;20201;-68
2023/01/29 11:36:20;;;;;;;10.00;9.10;;;;;;;;;;5064729;28;20268;-68
2023/01/29 11:38:59;;;;;;;11.50;10.30;;;;;;;;;;5064484;28;20223;-68
2023/01/29 11:41:26;;;;;;;10.57;9.45;;;;;;;;;;5064271;28;20193;-68
2023/01/29 11:43:52;;;;;;;12.77;9.60;;;;;;;;;;5064185;28;20230;-68
2023/01/29 11:46:18;;;;;;;12.10;9.32;;;;;;;;;;5064325;28;20239;-67
2023/01/29 11:48:46;;;;;;;10.00;9.10;;;;;;;;;;5064416;28;20201;-68
2023/01/29 11:51:20;;;;;;;11.07;9.70;;;;;;;;;;5064133;28;20224;-68
2023/01/29 11:53:50;;;;;;;11.18;9.23;;;;;;;;;;5063908;28;20527;-68
2023/01/29 11:56:20;;;;;;;10.40;9.32;;;;;;;;;;5064022;28;20201;-67
2023/01/29 11:58:47;;;;;;;10.40;9.40;;;;;;;;;;5064073;28;20205;-68
2023/01/29 12:01:16;;;;;;;9.15;8.25;;;;;;;;;;5064185;28;20496;-68
2023/01/29 12:03:44;;;;;;;9.63;8.63;;;;;;;;;;5063605;28;20201;-68
2023/01/29 12:06:16;;;;;;;10.07;8.90;;;;;;;;;;5063365;28;20201;-67
2023/01/29 12:08:42;;;;;;;11.70;10.05;;;;;;;;;;5063894;28;20205;-68
2023/01/29 12:11:10;;;;;;;12.82;10.05;;;;;;;;;;5063600;28;20416;-68
2023/01/29 12:13:37;;;;;;;13.25;10.10;;;;;;;;;;5064042;28;20207;-67
2023/01/29 12:16:12;;;;;;;10.00;8.90;;;;;;;;;;5063647;28;20197;-67
2023/01/29 12:18:40;;;;;;;10.35;9.35;;;;;;;;;;5063682;28;20239;-67
2023/01/29 12:21:14;;;;;;;12.35;9.40;;;;;;;;;;5063814;28;20193;-67
2023/01/29 12:23:43;;;;;;;15.82;8.77;;;;;;;;;;5063547;28;20207;-68
2023/01/29 12:26:14;;;;;;;9.63;8.70;;;;;;;;;;5055972;28;20220;-68
2023/01/29 12:28:44;;;;;;;9.23;8.32;;;;;;;;;;5063937;28;20324;-68
2023/01/29 12:31:21;;;;;;;9.27;8.45;;;;;;;;;;5056095;28;20224;-68
2023/01/29 12:33:50;;;;;;;9.18;8.27;;;;;;;;;;5063251;28;20223;-67
2023/01/29 12:36:18;;;;;;;8.88;7.93;;;;;;;;;;5063557;28;20232;-68
2023/01/29 12:38:44;;;;;;;9.00;8.07;;;;;;;;;;5063327;28;20209;-68
2023/01/29 12:41:20;;;;;;;7.82;7.18;;;;;;;;;;5063842;28;20512;-68
2023/01/29 12:43:49;;;;;;;8.55;7.75;;;;;;;;;;5063052;28;20216;-68
2023/01/29 12:46:19;;;;;;;9.60;8.70;;;;;;;;;;5063205;28;20201;-67
2023/01/29 12:48:46;;;;;;;8.82;8.00;;;;;;;;;;5062944;28;20213;-68
2023/01/29 12:51:15;;;;;;;8.73;7.90;;;;;;;;;;5063268;28;20532;-68
2023/01/29 12:53:43;;;;;;;10.80;7.70;;;;;;;;;;5063194;28;20207;-68
2023/01/29 12:56:11;;;;;;;7.78;7.07;;;;;;;;;;5055265;28;20205;-68
2023/01/29 12:58:41;;;;;;;7.65;6.95;;;;;;;;;;5063163;28;20201;-68
2023/01/29 13:01:12;;;;;;;8.05;6.80;;;;;;;;;;5054777;28;20212;-68
2023/01/29 13:03:44;;;;;;;6.68;6.15;;;;;;;;;;5063231;28;20554;-68
2023/01/29 13:06:12;;;;;;;6.68;6.07;;;;;;;;;;5055275;28;20205;-68
2023/01/29 13:08:41;;;;;;;8.45;7.47;;;;;;;;;;5063166;28;20211;-68
2023/01/29 13:11:09;;;;;;;10.13;8.20;;;;;;;;;;5054803;28;20520;-68
2023/01/29 13:13:38;;;;;;;6.57;5.85;;;;;;;;;;5062321;28;20236;-68
2023/01/29 13:16:07;;;;;;;7.32;6.55;;;;;;;;;;5062800;28;20535;-68
2023/01/29 13:18:37;;;;;;;7.45;5.88;;;;;;;;;;5062937;28;20500;-68
2023/01/29 13:21:04;;;;;;;6.50;5.90;;;;;;;;;;5062764;28;20504;-68
2023/01/29 13:23:33;;;;;;;6.13;5.70;;;;;;;;;;5062545;28;20197;-68
2023/01/29 13:26:00;;;;;;;6.57;5.97;;;;;;;;;;5062619;28;20201;-67
2023/01/29 13:28:26;;;;;;;8.32;5.95;;;;;;;;;;5062734;28;20217;-68
2023/01/29 13:31:18;;;;;;;7.95;6.45;;;;;;;;;;5062614;28;20201;-68
2023/01/29 13:33:51;;;;;;;6.82;6.18;;;;;;;;;;5062386;28;20247;-67
2023/01/29 13:36:20;;;;;;;6.50;5.90;;;;;;;;;;5062409;28;20404;-68
2023/01/29 13:38:46;;;;;;;11.48;6.60;;;;;;;;;;5062453;28;20235;-68
2023/01/29 13:41:13;;;;;;;5.70;5.30;;;;;;;;;;5062423;28;20212;-68
2023/01/29 13:43:41;;;;;;;8.40;6.47;;;;;;;;;;5062249;28;20434;-68
2023/01/29 13:46:08;;;;;;;6.95;6.32;;;;;;;;;;5054112;28;20206;-67
2023/01/29 13:48:40;;;;;;;6.63;6.00;;;;;;;;;;5062509;28;20258;-67
2023/01/29 13:51:14;;;;;;;8.13;5.85;;;;;;;;;;5054083;28;20211;-68
2023/01/29 13:53:41;;;;;;;13.52;7.63;;;;;;;;;;5062188;28;20201;-68
2023/01/29 13:56:26;;;;;;;10.82;9.73;;;;;;;;;;5054175;28;20204;-68
2023/01/29 13:58:53;;;;;;;8.23;7.40;;;;;;;;;;5061986;28;20197;-68
2023/01/29 14:01:39;;;;;;;6.60;6.10;;;;;;;;;;5062149;28;20228;-68
2023/01/29 14:04:24;;;;;;;6.60;5.95;;;;;;;;;;5061892;28;20193;-68
2023/01/29 14:06:51;;;;;;;7.72;6.68;;;;;;;;;;5062093;28;20265;-68
2023/01/29 14:09:34;;;;;;;7.78;6.50;;;;;;;;;;5062086;28;20200;-68
2023/01/29 14:12:00;;;;;;;9.93;7.45;;;;;;;;;;5061651;28;20275;-68
2023/01/29 14:14:45;;;;;;;10.93;9.05;;;;;;;;;;5061996;28;20235;-68
2023/01/29 14:17:11;;;;;;;7.55;6.90;;;;;;;;;;5054363;28;20512;-68
2023/01/29 14:19:46;;;;;;;9.30;7.30;;;;;;;;;;5061945;28;20211;-68
2023/01/29 14:22:18;;;;;;;9.50;7.38;;;;;;;;;;5054361;28;20200;-68
2023/01/29 14:24:45;;;;;;;7.25;6.65;;;;;;;;;;5061742;28;20212;-68
2023/01/29 14:27:17;;;;;;;8.05;7.28;;;;;;;;;;5062052;28;20197;-68
2023/01/29 14:29:43;;;;;;;8.60;7.85;;;;;;;;;;5065760;28;20201;-68
2023/01/29 14:32:12;;;;;;;8.55;7.50;;;;;;;;;;5065546;28;20212;-67
2023/01/29 14:34:44;;;;;;;7.47;6.78;;;;;;;;;;5065699;28;20209;-67
2023/01/29 14:37:19;;;;;;;8.07;7.38;;;;;;;;;;5066146;28;20553;-68
2023/01/29 14:39:48;;;;;;;7.13;6.53;;;;;;;;;;5065882;28;20268;-68
2023/01/29 14:42:18;;;;;;;7.32;6.50;;;;;;;;;;5065497;28;20227;-68
2023/01/29 14:45:05;;;;;;;10.68;7.10;;;;;;;;;;5065703;28;20201;-68
2023/01/29 14:47:50;;;;;;;8.30;6.72;;;;;;;;;;5065781;28;20204;-68
2023/01/29 14:50:46;;;;;;;6.82;6.22;;;;;;;;;;5058707;28;20216;-68
2023/01/29 14:53:16;;;;;;;8.13;6.97;;;;;;;;;;5023374;28;20374;-68
2023/01/29 14:55:44;;;;;;;7.15;6.50;;;;;;;;;;5055986;28;20201;-68
2023/01/29 14:58:13;;;;;;;9.57;7.68;;;;;;;;;;5065343;28;20204;-68
2023/01/29 15:00:42;;;;;;;20.50;11.98;;;;;;;;;;5065502;28;20509;-68
2023/01/29 15:03:13;;;;;;;9.52;8.52;;;;;;;;;;5057386;28;20401;-68
2023/01/29 15:05:40;;;;;;;7.85;7.15;;;;;;;;;;5065187;28;20201;-68
2023/01/29 15:08:08;;;;;;;7.68;6.93;;;;;;;;;;5064956;28;20200;-68
2023/01/29 15:10:38;;;;;;;9.88;7.18;;;;;;;;;;5065501;28;20201;-68
2023/01/29 15:13:12;;;;;;;9.15;7.70;;;;;;;;;;5064894;28;20259;-68
2023/01/29 15:15:43;;;;;;;15.95;14.20;;;;;;;;;;5059005;28;20217;-68
2023/01/29 15:18:13;;;;;;;15.30;12.68;;;;;;;;;;5061183;28;20220;-68